createdAt,value
2019-03-18T00:02:18.438Z,5.90
2019-03-18T00:04:48.782Z,5.90
2019-03-18T00:07:19.120Z,6.00
2019-03-18T00:09:49.475Z,6.10
2019-03-18T00:12:19.809Z,6.10
2019-03-18T00:15:00.796Z,6.10
2019-03-18T00:17:22.279Z,6.00
2019-03-18T00:19:52.618Z,5.80
2019-03-18T00:22:22.955Z,5.60
2019-03-18T00:24:53.298Z,5.60
2019-03-18T00:27:23.624Z,5.50
2019-03-18T00:29:53.961Z,5.40
2019-03-18T00:32:24.281Z,5.40
2019-03-18T00:34:55.594Z,5.30
2019-03-18T00:37:25.919Z,5.30
2019-03-18T00:39:56.256Z,5.20
2019-03-18T00:42:26.591Z,5.20
2019-03-18T00:44:56.981Z,5.20
2019-03-18T00:47:27.250Z,5.20
2019-03-18T00:49:57.596Z,5.20
2019-03-18T00:52:27.936Z,5.20
2019-03-18T00:54:58.260Z,5.30
2019-03-18T00:57:28.608Z,5.20
2019-03-18T00:59:58.954Z,5.20
2019-03-18T01:02:29.286Z,5.10
2019-03-18T01:04:59.840Z,5.00
2019-03-18T01:07:30.176Z,5.00
2019-03-18T01:10:00.609Z,5.00
2019-03-18T01:12:31.992Z,4.90
2019-03-18T01:15:02.325Z,4.90
2019-03-18T01:17:32.730Z,4.90
2019-03-18T01:20:03.466Z,4.80
2019-03-18T01:22:33.794Z,4.80
2019-03-18T01:25:05.586Z,4.90
2019-03-18T01:27:35.918Z,4.90
2019-03-18T01:30:09.839Z,5.00
2019-03-18T01:32:41.136Z,5.20
2019-03-18T01:35:11.829Z,5.30
2019-03-18T01:37:42.146Z,5.30
2019-03-18T01:40:14.798Z,5.30
2019-03-18T01:42:45.156Z,5.20
2019-03-18T01:45:15.533Z,5.20
2019-03-18T01:47:45.847Z,5.10
2019-03-18T01:50:16.523Z,5.10
2019-03-18T01:52:46.869Z,5.00
2019-03-18T01:55:17.222Z,4.90
2019-03-18T01:57:47.533Z,4.90
2019-03-18T02:00:17.888Z,4.80
2019-03-18T02:02:48.211Z,4.70
2019-03-18T02:05:18.540Z,4.70
2019-03-18T02:07:48.875Z,4.60
2019-03-18T02:10:19.203Z,4.60
2019-03-18T02:12:49.516Z,4.50
2019-03-18T02:15:19.851Z,4.50
2019-03-18T02:17:50.177Z,4.40
2019-03-18T02:20:20.506Z,4.40
2019-03-18T02:22:50.843Z,4.40
2019-03-18T02:25:21.177Z,4.30
2019-03-18T02:27:51.500Z,4.30
2019-03-18T02:30:21.816Z,4.30
2019-03-18T02:32:52.155Z,4.30
2019-03-18T02:35:22.484Z,4.30
2019-03-18T02:37:52.816Z,4.20
2019-03-18T02:40:23.138Z,4.20
2019-03-18T02:42:53.472Z,4.20
2019-03-18T02:45:24.863Z,4.20
2019-03-18T02:47:55.312Z,4.30
2019-03-18T02:50:25.668Z,4.30
2019-03-18T02:52:56.011Z,4.30
2019-03-18T02:55:26.362Z,4.30
2019-03-18T02:57:56.851Z,4.30
2019-03-18T03:00:28.270Z,4.30
2019-03-18T03:03:11.798Z,4.30
2019-03-18T03:05:43.109Z,4.40
2019-03-18T03:08:13.458Z,4.30
2019-03-18T03:10:43.804Z,4.30
2019-03-18T03:13:15.109Z,4.30
2019-03-18T03:15:45.453Z,4.30
2019-03-18T03:18:15.872Z,4.40
2019-03-18T03:20:46.204Z,4.50
2019-03-18T03:23:16.702Z,4.50
2019-03-18T03:25:47.274Z,4.50
2019-03-18T03:28:30.113Z,4.50
2019-03-18T03:31:00.709Z,4.50
2019-03-18T03:33:31.044Z,4.50
2019-03-18T03:36:01.370Z,4.40
2019-03-18T03:38:31.714Z,4.40
2019-03-18T03:41:02.046Z,4.30
2019-03-18T03:43:32.380Z,4.30
2019-03-18T03:46:02.719Z,4.30
2019-03-18T03:48:33.057Z,4.40
2019-03-18T03:51:03.388Z,4.40
2019-03-18T03:53:33.731Z,4.50
2019-03-18T03:56:04.080Z,4.60
2019-03-18T03:58:34.471Z,4.70
2019-03-18T04:01:04.816Z,4.80
2019-03-18T04:03:38.757Z,4.80
2019-03-18T04:06:07.166Z,4.80
2019-03-18T04:08:37.767Z,4.70
2019-03-18T04:11:08.829Z,4.60
2019-03-18T04:13:40.392Z,4.50
2019-03-18T04:16:11.801Z,4.40
2019-03-18T04:18:42.143Z,4.40
2019-03-18T04:21:12.476Z,4.30
2019-03-18T04:23:42.809Z,4.30
2019-03-18T04:26:13.176Z,4.20
2019-03-18T04:28:43.505Z,4.20
2019-03-18T04:31:14.090Z,4.10
2019-03-18T04:33:44.430Z,4.10
2019-03-18T04:36:14.768Z,4.10
2019-03-18T04:38:45.108Z,4.00
2019-03-18T04:41:15.442Z,4.00
2019-03-18T04:43:45.772Z,3.90
2019-03-18T04:46:16.122Z,4.00
2019-03-18T04:48:46.548Z,4.00
2019-03-18T04:51:16.874Z,3.90
2019-03-18T04:53:47.225Z,3.90
2019-03-18T04:56:17.553Z,3.90
2019-03-18T04:58:47.897Z,4.00
2019-03-18T05:01:18.241Z,4.00
2019-03-18T05:03:48.589Z,4.00
2019-03-18T05:06:20.081Z,4.10
2019-03-18T05:08:51.869Z,4.30
2019-03-18T05:11:22.205Z,4.40
2019-03-18T05:13:52.635Z,4.50
2019-03-18T05:16:23.076Z,4.60
2019-03-18T05:18:53.418Z,4.60
2019-03-18T05:21:23.746Z,4.70
2019-03-18T05:23:54.082Z,4.70
2019-03-18T05:26:24.412Z,4.70
2019-03-18T05:28:54.751Z,4.70
2019-03-18T05:31:25.098Z,4.70
2019-03-18T05:33:56.471Z,4.70
2019-03-18T05:36:26.842Z,4.80
2019-03-18T05:38:57.176Z,4.80
2019-03-18T05:41:27.508Z,4.70
2019-03-18T05:43:57.848Z,4.70
2019-03-18T05:46:28.176Z,4.70
2019-03-18T05:48:59.483Z,4.60
2019-03-18T05:51:30.014Z,4.60
2019-03-18T05:54:00.362Z,4.50
2019-03-18T05:56:30.789Z,4.50
2019-03-18T05:59:01.128Z,4.40
2019-03-18T06:01:31.475Z,4.30
2019-03-18T06:04:01.805Z,4.30
2019-03-18T06:06:32.160Z,4.20
2019-03-18T06:09:02.493Z,4.20
2019-03-18T06:11:32.840Z,4.20
2019-03-18T06:14:03.170Z,4.20
2019-03-18T06:16:33.506Z,4.10
2019-03-18T06:19:03.844Z,4.10
2019-03-18T06:21:34.198Z,4.10
2019-03-18T06:24:06.445Z,4.10
2019-03-18T06:26:36.652Z,4.10
2019-03-18T06:29:06.984Z,4.10
2019-03-18T06:31:37.443Z,4.10
2019-03-18T06:34:07.779Z,4.20
2019-03-18T06:36:38.133Z,4.30
2019-03-18T06:39:08.529Z,4.40
2019-03-18T06:41:38.883Z,4.60
2019-03-18T06:44:09.218Z,4.90
2019-03-18T06:46:39.646Z,5.30
2019-03-18T06:49:10.841Z,5.70
2019-03-18T06:51:42.966Z,6.00
2019-03-18T06:54:13.281Z,6.60
2019-03-18T06:56:43.639Z,7.20
2019-03-18T06:59:13.976Z,7.80
2019-03-18T07:01:44.312Z,7.90
2019-03-18T07:04:28.753Z,7.80
2019-03-18T07:07:25.299Z,7.60
2019-03-18T07:09:57.303Z,7.70
2019-03-18T07:12:34.576Z,8.10
2019-03-18T07:15:24.573Z,8.30
2019-03-18T07:18:18.016Z,8.40
2019-03-18T07:20:45.539Z,8.60
2019-03-18T07:23:23.660Z,8.50
2019-03-18T07:26:00.006Z,8.40
2019-03-18T07:28:36.520Z,8.20
2019-03-18T07:31:11.374Z,8.10
2019-03-18T07:33:51.222Z,8.00
2019-03-18T07:36:26.455Z,8.00
2019-03-18T07:39:03.754Z,8.00
2019-03-18T07:41:46.662Z,7.90
2019-03-18T07:44:33.369Z,8.00
2019-03-18T07:47:13.217Z,8.00
2019-03-18T07:49:59.208Z,8.00
2019-03-18T07:52:39.157Z,8.00
2019-03-18T07:55:17.822Z,8.00
2019-03-18T07:57:55.677Z,8.00
2019-03-18T08:00:34.193Z,8.00
2019-03-18T08:03:18.750Z,7.90
2019-03-18T08:06:04.903Z,8.10
2019-03-18T08:08:42.644Z,8.40
2019-03-18T08:11:17.471Z,8.50
2019-03-18T08:13:57.012Z,8.50
2019-03-18T08:16:38.497Z,8.30
2019-03-18T08:19:15.280Z,8.10
2019-03-18T08:22:02.595Z,7.80
2019-03-18T08:24:44.013Z,7.70
2019-03-18T08:27:23.172Z,7.70
2019-03-18T08:29:58.874Z,7.60
2019-03-18T08:32:41.799Z,7.60
2019-03-18T08:35:19.940Z,7.70
2019-03-18T08:38:22.567Z,8.00
2019-03-18T08:40:43.084Z,8.30
2019-03-18T08:43:21.671Z,8.60
2019-03-18T08:45:59.480Z,8.60
2019-03-18T08:48:40.350Z,8.90
2019-03-18T08:51:14.871Z,9.30
2019-03-18T08:53:55.903Z,9.60
2019-03-18T08:56:34.070Z,9.90
2019-03-18T08:59:05.912Z,10.10
2019-03-18T09:01:51.801Z,10.10
2019-03-18T09:04:27.551Z,10.30
2019-03-18T09:07:04.839Z,10.30
2019-03-18T09:09:44.328Z,10.60
2019-03-18T09:12:21.563Z,11.00
2019-03-18T09:14:54.064Z,11.30
2019-03-18T09:17:24.410Z,11.70
2019-03-18T09:19:56.293Z,12.40
2019-03-18T09:22:26.649Z,12.90
2019-03-18T09:24:56.994Z,13.30
2019-03-18T09:27:27.331Z,13.70
2019-03-18T09:29:57.673Z,14.20
2019-03-18T09:32:28.013Z,14.20
2019-03-18T09:34:58.390Z,14.20
2019-03-18T09:37:28.733Z,13.60
2019-03-18T09:39:59.084Z,12.80
2019-03-18T09:42:29.421Z,11.90
2019-03-18T09:44:59.812Z,11.20
2019-03-18T09:47:30.117Z,10.50
2019-03-18T09:50:00.461Z,10.00
2019-03-18T09:52:30.793Z,9.60
2019-03-18T09:55:01.129Z,9.40
2019-03-18T09:57:31.479Z,9.30
2019-03-18T10:00:01.827Z,9.20
2019-03-18T10:02:32.173Z,9.30
2019-03-18T10:05:02.602Z,9.40
2019-03-18T10:07:32.933Z,9.60
2019-03-18T10:10:04.740Z,9.70
2019-03-18T10:12:35.077Z,9.80
2019-03-18T10:15:14.529Z,10.00
2019-03-18T10:17:44.868Z,10.20
2019-03-18T10:20:15.283Z,10.70
2019-03-18T10:22:46.693Z,11.40
2019-03-18T10:25:17.051Z,11.70
2019-03-18T10:27:47.403Z,11.80
2019-03-18T10:30:17.894Z,12.20
2019-03-18T10:32:48.306Z,12.80
2019-03-18T10:35:18.652Z,12.90
2019-03-18T10:37:48.990Z,12.70
2019-03-18T10:40:19.661Z,12.40
2019-03-18T10:42:49.988Z,12.50
2019-03-18T10:45:20.333Z,12.90
2019-03-18T10:47:50.666Z,13.30
2019-03-18T10:50:21.011Z,13.20
2019-03-18T10:52:54.359Z,13.20
2019-03-18T10:55:24.712Z,13.50
2019-03-18T10:57:55.047Z,13.90
2019-03-18T11:00:25.396Z,14.00
2019-03-18T11:02:55.738Z,13.70
2019-03-18T11:05:26.172Z,13.40
2019-03-18T11:07:56.510Z,13.00
2019-03-18T11:10:26.850Z,12.60
2019-03-18T11:12:57.193Z,12.30
2019-03-18T11:15:27.555Z,12.20
2019-03-18T11:17:57.890Z,12.40
2019-03-18T11:20:28.227Z,12.80
2019-03-18T11:22:58.571Z,13.40
2019-03-18T11:25:28.919Z,13.90
2019-03-18T11:28:00.525Z,14.10
2019-03-18T11:30:30.782Z,14.10
2019-03-18T11:33:01.126Z,13.90
2019-03-18T11:35:31.468Z,13.80
2019-03-18T11:38:01.856Z,13.70
2019-03-18T11:40:32.189Z,13.70
2019-03-18T11:43:02.531Z,13.40
2019-03-18T11:45:32.887Z,12.80
2019-03-18T11:48:03.240Z,12.40
2019-03-18T11:50:33.609Z,12.20
2019-03-18T11:53:13.866Z,11.90
2019-03-18T11:55:36.177Z,11.70
2019-03-18T11:58:07.552Z,11.70
2019-03-18T12:00:37.976Z,11.60
2019-03-18T12:03:08.315Z,11.60
2019-03-18T12:05:38.663Z,11.50
2019-03-18T12:08:09.027Z,11.50
2019-03-18T12:10:39.376Z,11.50
2019-03-18T12:13:09.728Z,11.50
2019-03-18T12:15:40.067Z,11.50
2019-03-18T12:18:10.417Z,11.50
2019-03-18T12:20:40.754Z,11.40
2019-03-18T12:23:11.090Z,11.40
2019-03-18T12:25:41.437Z,11.20
2019-03-18T12:28:11.791Z,11.00
2019-03-18T12:30:42.108Z,10.80
2019-03-18T12:33:12.636Z,10.70
2019-03-18T12:35:42.976Z,10.60
2019-03-18T12:38:13.309Z,10.50
2019-03-18T12:40:43.657Z,10.50
2019-03-18T12:43:14.090Z,10.50
2019-03-18T12:45:44.449Z,10.60
2019-03-18T12:48:14.767Z,10.50
2019-03-18T12:50:55.649Z,10.20
2019-03-18T12:53:17.153Z,10.00
2019-03-18T12:55:47.549Z,9.80
2019-03-18T12:58:17.902Z,9.50
2019-03-18T13:00:48.249Z,9.40
2019-03-18T13:03:18.582Z,9.40
2019-03-18T13:05:48.914Z,9.40
2019-03-18T13:08:19.344Z,9.50
2019-03-18T13:10:49.649Z,9.60
2019-03-18T13:13:19.983Z,9.60
2019-03-18T13:15:50.310Z,9.70
2019-03-18T13:18:20.641Z,9.80
2019-03-18T13:20:50.983Z,10.00
2019-03-18T13:23:21.321Z,10.00
2019-03-18T13:25:52.736Z,10.20
2019-03-18T13:28:24.175Z,10.30
2019-03-18T13:30:54.511Z,10.40
2019-03-18T13:33:24.854Z,10.50
2019-03-18T13:35:56.180Z,10.50
2019-03-18T13:38:27.749Z,10.40
2019-03-18T13:40:58.109Z,10.50
2019-03-18T13:43:28.442Z,10.60
2019-03-18T13:45:59.037Z,10.70
2019-03-18T13:48:29.389Z,10.70
2019-03-18T13:50:59.749Z,10.80
2019-03-18T13:53:30.135Z,10.90
2019-03-18T13:56:00.434Z,11.10
2019-03-18T13:58:30.774Z,11.20
2019-03-18T14:01:01.122Z,11.10
2019-03-18T14:03:31.490Z,11.10
2019-03-18T14:06:01.899Z,11.00
2019-03-18T14:08:32.238Z,10.90
2019-03-18T14:11:02.746Z,10.80
2019-03-18T14:13:33.091Z,10.70
2019-03-18T14:16:03.515Z,10.60
2019-03-18T14:18:33.861Z,10.50
2019-03-18T14:21:04.196Z,10.40
2019-03-18T14:23:34.550Z,10.50
2019-03-18T14:26:04.882Z,10.50
2019-03-18T14:28:35.243Z,10.70
2019-03-18T14:31:05.593Z,10.80
2019-03-18T14:33:35.944Z,10.70
2019-03-18T14:36:06.290Z,10.50
2019-03-18T14:38:38.437Z,10.40
2019-03-18T14:41:08.706Z,10.30
2019-03-18T14:43:39.052Z,10.30
2019-03-18T14:46:09.411Z,10.20
2019-03-18T14:48:39.749Z,10.20
2019-03-18T14:51:10.098Z,10.20
2019-03-18T14:53:40.467Z,10.20
2019-03-18T14:56:10.801Z,10.20
2019-03-18T14:58:41.147Z,10.10
2019-03-18T15:01:11.505Z,10.10
2019-03-18T15:03:41.847Z,10.00
2019-03-18T15:06:12.199Z,10.00
2019-03-18T15:08:42.542Z,10.00
2019-03-18T15:11:12.883Z,9.90
2019-03-18T15:13:43.217Z,9.90
2019-03-18T15:16:13.649Z,9.80
2019-03-18T15:18:44.055Z,9.60
2019-03-18T15:21:14.414Z,9.60
2019-03-18T15:23:44.763Z,9.50
2019-03-18T15:26:15.125Z,9.50
2019-03-18T15:28:45.465Z,9.50
2019-03-18T15:31:15.797Z,9.60
2019-03-18T15:33:46.131Z,9.60
2019-03-18T15:36:16.474Z,9.50
2019-03-18T15:38:46.808Z,9.50
2019-03-18T15:41:17.737Z,9.50
2019-03-18T15:43:48.077Z,9.40
2019-03-18T15:46:18.506Z,9.40
2019-03-18T15:48:49.109Z,9.30
2019-03-18T15:51:19.450Z,9.30
2019-03-18T15:53:49.791Z,9.30
2019-03-18T15:56:20.130Z,9.30
2019-03-18T15:58:50.458Z,9.30
2019-03-18T16:17:41.379Z,9.00
2019-03-18T16:20:25.340Z,8.90
2019-03-18T16:22:55.760Z,8.80
2019-03-18T16:25:26.095Z,8.70
2019-03-18T16:27:56.507Z,8.70
2019-03-18T16:30:26.935Z,8.70
2019-03-18T16:32:57.547Z,8.70
2019-03-18T16:35:27.893Z,8.60
2019-03-18T16:37:58.228Z,8.60
2019-03-18T16:40:28.587Z,8.60
2019-03-18T16:42:58.940Z,8.60
2019-03-18T16:45:29.264Z,8.60
2019-03-18T16:47:59.660Z,8.50
2019-03-18T16:50:31.542Z,8.50
2019-03-18T16:53:01.873Z,8.40
2019-03-18T16:55:32.209Z,8.30
2019-03-18T16:58:02.568Z,8.30
2019-03-18T17:00:32.949Z,8.20
2019-03-18T17:03:03.254Z,8.10
2019-03-18T17:05:33.574Z,8.10
2019-03-18T17:08:03.912Z,8.00
2019-03-18T17:10:34.269Z,8.00
2019-03-18T17:13:04.606Z,7.90
2019-03-18T17:15:34.935Z,7.90
2019-03-18T17:18:05.259Z,7.80
2019-03-18T17:33:45.473Z,7.40
2019-03-18T17:36:15.816Z,7.30
2019-03-18T17:38:46.137Z,7.20
2019-03-18T17:41:16.578Z,7.10
2019-03-18T17:43:46.912Z,7.00
2019-03-18T17:46:17.333Z,7.00
2019-03-18T17:48:47.728Z,6.90
2019-03-18T17:51:18.068Z,6.80
2019-03-18T17:53:48.494Z,6.80
2019-03-18T17:56:29.673Z,6.80
2019-03-18T17:58:50.874Z,6.70
2019-03-18T18:01:21.228Z,6.60
2019-03-18T18:03:51.579Z,6.50
2019-03-18T18:06:21.921Z,6.40
2019-03-18T18:08:52.277Z,6.30
2019-03-18T18:11:22.626Z,6.20
2019-03-18T18:13:53.061Z,6.20
2019-03-18T18:16:23.400Z,6.10
2019-03-18T18:18:53.828Z,6.00
2019-03-18T18:21:24.158Z,6.00
2019-03-18T18:23:54.568Z,5.90
2019-03-18T18:26:24.906Z,5.90
2019-03-18T18:28:55.246Z,5.80
2019-03-18T18:31:25.574Z,5.70
2019-03-18T18:33:55.913Z,5.70
2019-03-18T18:36:26.264Z,5.60
2019-03-18T18:38:56.598Z,5.50
2019-03-18T18:41:28.478Z,5.50
2019-03-18T18:43:58.818Z,5.40
2019-03-18T18:46:29.291Z,5.30
2019-03-18T18:48:59.698Z,5.30
2019-03-18T18:51:30.037Z,5.20
2019-03-18T18:54:00.377Z,5.20
2019-03-18T18:56:30.793Z,5.10
2019-03-18T18:59:01.133Z,5.00
2019-03-18T19:01:31.480Z,5.00
2019-03-18T19:04:02.698Z,4.90
2019-03-18T19:06:33.031Z,4.90
2019-03-18T19:09:03.808Z,4.80
2019-03-18T19:11:34.215Z,4.80
2019-03-18T19:14:04.616Z,4.70
2019-03-18T19:16:34.948Z,4.70
2019-03-18T19:19:05.294Z,4.70
2019-03-18T19:21:35.612Z,4.70
2019-03-18T19:24:05.974Z,4.70
2019-03-18T19:26:36.973Z,4.70
2019-03-18T19:29:07.302Z,4.70
2019-03-18T19:31:37.706Z,4.70
2019-03-18T19:34:08.211Z,4.70
2019-03-18T19:36:38.530Z,4.60
2019-03-18T19:39:08.960Z,4.60
2019-03-18T19:41:40.358Z,4.60
2019-03-18T19:44:10.897Z,4.60
2019-03-18T19:46:41.237Z,4.50
2019-03-18T19:49:11.569Z,4.50
2019-03-18T19:51:41.885Z,4.40
2019-03-18T19:54:13.009Z,4.40
2019-03-18T19:56:44.591Z,4.30
2019-03-18T19:59:14.929Z,4.30
2019-03-18T20:01:45.263Z,4.20
2019-03-18T20:04:15.617Z,4.10
2019-03-18T20:06:45.939Z,4.10
2019-03-18T20:09:17.145Z,4.10
2019-03-18T20:11:47.474Z,4.00
2019-03-18T20:14:18.106Z,3.90
2019-03-18T20:16:48.448Z,3.90
2019-03-18T20:19:18.770Z,3.80
2019-03-18T20:21:49.194Z,3.80
2019-03-18T20:24:19.523Z,3.80
2019-03-18T20:26:49.871Z,3.80
2019-03-18T20:29:20.187Z,3.70
2019-03-18T20:31:50.515Z,3.60
2019-03-18T20:34:30.231Z,3.60
2019-03-18T20:37:00.568Z,3.50
2019-03-18T20:39:31.230Z,3.50
2019-03-18T20:42:01.818Z,3.40
2019-03-18T20:44:32.166Z,3.40
2019-03-18T20:47:02.498Z,3.30
2019-03-18T20:49:32.852Z,3.20
2019-03-18T20:52:04.349Z,3.20
2019-03-18T20:54:34.685Z,3.10
2019-03-18T20:57:05.172Z,3.10
2019-03-18T20:59:35.500Z,3.10
2019-03-18T21:02:05.905Z,3.10
2019-03-18T21:04:36.238Z,3.00
2019-03-18T21:07:06.574Z,3.00
2019-03-18T21:09:37.345Z,3.00
2019-03-18T21:12:07.695Z,2.90
2019-03-18T21:14:38.022Z,2.90
2019-03-18T21:17:09.337Z,2.80
2019-03-18T21:19:39.665Z,2.70
2019-03-18T21:22:09.997Z,2.70
2019-03-18T21:24:40.324Z,2.60
2019-03-18T21:27:10.668Z,2.50
2019-03-18T21:29:40.990Z,2.50
2019-03-18T21:32:11.328Z,2.40
2019-03-18T21:34:41.658Z,2.40
2019-03-18T21:37:11.991Z,2.30
2019-03-18T21:39:42.314Z,2.30
2019-03-18T21:42:12.730Z,2.20
2019-03-18T21:44:43.047Z,2.20
2019-03-18T21:47:13.390Z,2.10
2019-03-18T21:49:43.711Z,2.00
2019-03-18T21:52:14.038Z,2.00
2019-03-18T21:54:44.369Z,1.90
2019-03-18T21:57:14.702Z,1.90
2019-03-18T21:59:45.023Z,1.80
2019-03-18T22:02:15.353Z,1.80
2019-03-18T22:04:45.680Z,1.70
2019-03-18T22:07:16.025Z,1.70
2019-03-18T22:09:46.350Z,1.60
2019-03-18T22:12:16.767Z,1.60
2019-03-18T22:14:47.090Z,1.60
2019-03-18T22:17:17.431Z,1.50
2019-03-18T22:19:47.774Z,1.40
2019-03-18T22:22:18.104Z,1.40
2019-03-18T22:24:50.074Z,1.40
2019-03-18T22:27:20.680Z,1.30
2019-03-18T22:29:51.003Z,1.30
2019-03-18T22:32:21.330Z,1.20
2019-03-18T22:34:51.651Z,1.20
2019-03-18T22:37:22.059Z,1.20
2019-03-18T22:39:52.379Z,1.10
2019-03-18T22:42:22.793Z,1.10
2019-03-18T22:44:53.129Z,1.10
2019-03-18T22:47:23.472Z,1.00
2019-03-18T22:49:53.801Z,1.00
2019-03-18T22:52:24.126Z,1.00
2019-03-18T22:54:56.120Z,0.90
2019-03-18T22:57:26.659Z,0.90
2019-03-18T22:59:56.980Z,0.90
2019-03-18T23:02:27.312Z,0.90
2019-03-18T23:04:57.646Z,0.80
2019-03-18T23:07:27.976Z,0.80
2019-03-18T23:09:58.299Z,0.80
2019-03-18T23:12:28.628Z,0.80
2019-03-18T23:14:58.964Z,0.70
2019-03-18T23:17:29.294Z,0.70
2019-03-18T23:19:59.622Z,0.70
2019-03-18T23:22:29.957Z,0.70
2019-03-18T23:25:07.045Z,0.70
2019-03-18T23:27:32.306Z,0.60
2019-03-18T23:30:05.915Z,0.60
2019-03-18T23:32:36.255Z,0.60
2019-03-18T23:35:07.610Z,0.50
2019-03-18T23:37:37.940Z,0.50
2019-03-18T23:40:31.965Z,0.50
2019-03-18T23:43:02.311Z,0.50
2019-03-18T23:45:32.637Z,0.40
2019-03-18T23:48:02.965Z,0.40
2019-03-18T23:50:33.291Z,0.40
2019-03-18T23:53:03.631Z,0.40
2019-03-18T23:55:33.959Z,0.30
2019-03-18T23:58:04.287Z,0.30
